Тейково-5

Карта отелей и гостиниц, располагающихся рядом с аэропортом Тейково-5 :

Тейково-5 Ивановская область 56° 52' 22.6704" N, 40° 6' 40.2984" E
Код аэродрома ИКАО
HH30
Код аэродрома RU
ХХ30
Координаты
N56.87296° E040.11119°
Превышение над уровнем моря
144
Основная полоса
Курс магнитный
Длина основной ВПП
Ширина основной ВПП
Покрытие основной ВПП
Освещение ВПП
Тип: 
Вертодром
Класс аэродрома: 
Принадлежность: 
МО
Статус: 
Недействующий
Сайт: 
E-mail аэродрома: 
Страна: 
Россия
Регион: 
Ивановская область
Город: 
Дополнительная информация: 
Оператор: 54-я Гв. РД РВСН.

Найти трансфер

С помощью этой формы Вы можете найти трансфер из аэропорта Тейково-5 в город, аэропорт или вокзал:

Погода в аэропортах:

Авиационная погода в Перми

Регион: 
Погода METAR: 
USPP 221800Z 11003MPS 5000 -SN BR OVC015 M15/M17 Q1029 R21/090060 NOSIG RMK QFE760
Время наблюдения
2022-01-22T18:00:00Z
Температура C
-15.0
Точка росы
-17.0
Направление ветра
110
Скорость ветра (узлы)
6
Метео видимость
3.11
Облачность
OVC
Нижняя граница облачности (футы)
1500
Явления погоды
-SN BR
Условия полета
MVFR
Аэропорт подробнее: 
OVC – сплошная облачность;
-SN – слабый снег; BR – дымка (видимость от 1 до 9 км);

Авиационная погода в Череповце

Регион: 
Погода METAR: 
ULWC 221800Z 06002MPS 9999 -SN BKN010 M09/M11 Q1018 R03/490536 NOSIG RMK QFE753/1005
Время наблюдения
2022-01-22T18:00:00Z
Температура C
-9.0
Точка росы
-11.0
Направление ветра
60
Скорость ветра (узлы)
4
Метео видимость
6.21
Облачность
BKN
Нижняя граница облачности (футы)
1000
Явления погоды
-SN
Условия полета
MVFR
Аэропорт подробнее: 
BKN – значительная (рассеянная, разорванная) облачность;
-SN – слабый снег;

Авиационная погода в Ивало

Регион: 
Погода METAR: 
EFIV 221750Z 21013KT 170V230 9999 -SHSN BLSN OVC011 M06/M08 Q1006
Время наблюдения
2022-01-22T17:50:00Z
Температура C
-6.0
Точка росы
-8.0
Направление ветра
210
Скорость ветра (узлы)
13
Метео видимость
6.21
Облачность
OVC
Нижняя граница облачности (футы)
1100
Явления погоды
-SHSN BLSN
Условия полета
MVFR
OVC – сплошная облачность;
-SHSN - слабый ливневой снег, BLSN – метель низовая или общая;

Авиационная погода в Казани

Регион: 
Погода METAR: 
UWKD 221800Z 15007MPS 1900 R11/P2000N SN BLSN OVC021 M06/M08 Q1020 R11/451040 NOSIG RMK QFE755/1007
Время наблюдения
2022-01-22T18:00:00Z
Температура C
-6.0
Точка росы
-8.0
Направление ветра
150
Скорость ветра (узлы)
14
Метео видимость
1.18
Облачность
OVC
Нижняя граница облачности (футы)
2100
Явления погоды
SN BLSN
Условия полета
IFR
Аэропорт подробнее: 
OVC – сплошная облачность;
SN – снег, BLSN – метель низовая или общая;